sensor_id;sensor_type;location;lat;lon;timestamp;P1;durP1;ratioP1;P2;durP2;ratioP2
16824;SDS011;8529;48.108;-1.706;2022-12-10T00:01:20;42.80;;;22.53;;
16824;SDS011;8529;48.108;-1.706;2022-12-10T00:03:48;43.13;;;21.17;;
16824;SDS011;8529;48.108;-1.706;2022-12-10T00:06:16;36.13;;;21.83;;
16824;SDS011;8529;48.108;-1.706;2022-12-10T00:08:45;38.40;;;20.90;;
16824;SDS011;8529;48.108;-1.706;2022-12-10T00:11:12;40.00;;;22.43;;
16824;SDS011;8529;48.108;-1.706;2022-12-10T00:13:42;40.67;;;24.40;;
16824;SDS011;8529;48.108;-1.706;2022-12-10T00:16:11;48.57;;;23.90;;
16824;SDS011;8529;48.108;-1.706;2022-12-10T00:18:39;44.90;;;23.37;;
16824;SDS011;8529;48.108;-1.706;2022-12-10T00:21:07;45.23;;;23.53;;
16824;SDS011;8529;48.108;-1.706;2022-12-10T00:23:36;47.83;;;23.87;;
16824;SDS011;8529;48.108;-1.706;2022-12-10T00:26:04;51.67;;;24.87;;
16824;SDS011;8529;48.108;-1.706;2022-12-10T00:28:32;48.97;;;24.20;;
16824;SDS011;8529;48.108;-1.706;2022-12-10T00:31:04;48.33;;;24.20;;
16824;SDS011;8529;48.108;-1.706;2022-12-10T00:33:32;42.50;;;22.50;;
16824;SDS011;8529;48.108;-1.706;2022-12-10T00:36:03;48.17;;;23.00;;
16824;SDS011;8529;48.108;-1.706;2022-12-10T00:38:32;47.90;;;23.43;;
16824;SDS011;8529;48.108;-1.706;2022-12-10T00:40:59;45.10;;;23.37;;
16824;SDS011;8529;48.108;-1.706;2022-12-10T00:43:26;47.23;;;23.93;;
16824;SDS011;8529;48.108;-1.706;2022-12-10T00:45:53;44.00;;;22.33;;
16824;SDS011;8529;48.108;-1.706;2022-12-10T00:48:22;40.33;;;22.73;;
16824;SDS011;8529;48.108;-1.706;2022-12-10T00:50:56;45.37;;;23.87;;
16824;SDS011;8529;48.108;-1.706;2022-12-10T00:53:25;43.53;;;21.70;;
16824;SDS011;8529;48.108;-1.706;2022-12-10T00:55:53;43.53;;;22.13;;
16824;SDS011;8529;48.108;-1.706;2022-12-10T00:58:20;39.17;;;20.93;;
16824;SDS011;8529;48.108;-1.706;2022-12-10T01:00:47;43.13;;;22.00;;
16824;SDS011;8529;48.108;-1.706;2022-12-10T01:03:14;43.07;;;23.23;;
16824;SDS011;8529;48.108;-1.706;2022-12-10T01:05:43;45.07;;;24.10;;
16824;SDS011;8529;48.108;-1.706;2022-12-10T01:08:10;43.93;;;22.97;;
16824;SDS011;8529;48.108;-1.706;2022-12-10T01:10:37;43.13;;;23.37;;
16824;SDS011;8529;48.108;-1.706;2022-12-10T01:13:04;42.13;;;23.30;;
16824;SDS011;8529;48.108;-1.706;2022-12-10T01:15:31;40.67;;;21.97;;
16824;SDS011;8529;48.108;-1.706;2022-12-10T01:18:04;46.13;;;23.13;;
16824;SDS011;8529;48.108;-1.706;2022-12-10T01:20:34;45.63;;;22.97;;
16824;SDS011;8529;48.108;-1.706;2022-12-10T01:23:03;42.70;;;21.87;;
16824;SDS011;8529;48.108;-1.706;2022-12-10T01:25:30;37.80;;;20.77;;
16824;SDS011;8529;48.108;-1.706;2022-12-10T01:27:57;44.10;;;22.10;;
16824;SDS011;8529;48.108;-1.706;2022-12-10T01:30:24;40.73;;;21.77;;
16824;SDS011;8529;48.108;-1.706;2022-12-10T01:32:51;43.57;;;23.00;;
16824;SDS011;8529;48.108;-1.706;2022-12-10T01:35:18;42.53;;;22.00;;
16824;SDS011;8529;48.108;-1.706;2022-12-10T01:37:45;38.13;;;22.07;;
16824;SDS011;8529;48.108;-1.706;2022-12-10T01:40:13;41.93;;;21.73;;
16824;SDS011;8529;48.108;-1.706;2022-12-10T01:42:40;41.17;;;21.50;;
16824;SDS011;8529;48.108;-1.706;2022-12-10T01:45:09;40.10;;;21.07;;
16824;SDS011;8529;48.108;-1.706;2022-12-10T01:47:38;41.30;;;21.63;;
16824;SDS011;8529;48.108;-1.706;2022-12-10T01:50:05;43.30;;;22.73;;
16824;SDS011;8529;48.108;-1.706;2022-12-10T01:52:34;42.17;;;21.63;;
16824;SDS011;8529;48.108;-1.706;2022-12-10T01:55:01;39.00;;;22.00;;
16824;SDS011;8529;48.108;-1.706;2022-12-10T01:57:34;41.10;;;21.27;;
16824;SDS011;8529;48.108;-1.706;2022-12-10T02:00:02;38.17;;;20.57;;
16824;SDS011;8529;48.108;-1.706;2022-12-10T02:02:35;40.87;;;22.90;;
16824;SDS011;8529;48.108;-1.706;2022-12-10T02:05:13;41.77;;;21.17;;
16824;SDS011;8529;48.108;-1.706;2022-12-10T02:07:54;40.60;;;22.10;;
16824;SDS011;8529;48.108;-1.706;2022-12-10T02:10:30;46.30;;;20.87;;
16824;SDS011;8529;48.108;-1.706;2022-12-10T02:13:09;44.30;;;21.83;;
16824;SDS011;8529;48.108;-1.706;2022-12-10T02:15:41;40.30;;;22.30;;
16824;SDS011;8529;48.108;-1.706;2022-12-10T02:18:13;39.20;;;21.27;;
16824;SDS011;8529;48.108;-1.706;2022-12-10T02:20:46;38.13;;;21.50;;
16824;SDS011;8529;48.108;-1.706;2022-12-10T02:23:16;44.20;;;23.30;;
16824;SDS011;8529;48.108;-1.706;2022-12-10T02:25:49;41.73;;;21.70;;
16824;SDS011;8529;48.108;-1.706;2022-12-10T02:28:26;41.47;;;22.03;;
16824;SDS011;8529;48.108;-1.706;2022-12-10T02:31:01;45.23;;;22.30;;
16824;SDS011;8529;48.108;-1.706;2022-12-10T02:33:29;47.73;;;22.37;;
16824;SDS011;8529;48.108;-1.706;2022-12-10T02:35:59;37.37;;;21.47;;
16824;SDS011;8529;48.108;-1.706;2022-12-10T02:38:28;35.17;;;20.03;;
16824;SDS011;8529;48.108;-1.706;2022-12-10T02:40:57;41.50;;;21.23;;
16824;SDS011;8529;48.108;-1.706;2022-12-10T02:43:27;42.67;;;21.27;;
16824;SDS011;8529;48.108;-1.706;2022-12-10T02:45:55;35.67;;;20.53;;
16824;SDS011;8529;48.108;-1.706;2022-12-10T02:48:25;46.73;;;23.00;;
16824;SDS011;8529;48.108;-1.706;2022-12-10T02:50:53;37.43;;;22.23;;
16824;SDS011;8529;48.108;-1.706;2022-12-10T02:53:20;40.10;;;20.53;;
16824;SDS011;8529;48.108;-1.706;2022-12-10T02:55:52;37.97;;;20.70;;
16824;SDS011;8529;48.108;-1.706;2022-12-10T02:58:27;38.87;;;20.87;;
16824;SDS011;8529;48.108;-1.706;2022-12-10T03:01:02;40.73;;;20.47;;
16824;SDS011;8529;48.108;-1.706;2022-12-10T03:03:40;41.57;;;20.63;;
16824;SDS011;8529;48.108;-1.706;2022-12-10T03:06:15;39.80;;;20.23;;
16824;SDS011;8529;48.108;-1.706;2022-12-10T03:08:45;38.63;;;20.27;;
16824;SDS011;8529;48.108;-1.706;2022-12-10T03:11:16;43.57;;;21.43;;
16824;SDS011;8529;48.108;-1.706;2022-12-10T03:13:46;35.77;;;19.93;;
16824;SDS011;8529;48.108;-1.706;2022-12-10T03:16:17;39.00;;;19.87;;
16824;SDS011;8529;48.108;-1.706;2022-12-10T03:18:47;39.67;;;20.63;;
16824;SDS011;8529;48.108;-1.706;2022-12-10T03:21:18;36.40;;;20.77;;
16824;SDS011;8529;48.108;-1.706;2022-12-10T03:23:47;34.63;;;18.87;;
16824;SDS011;8529;48.108;-1.706;2022-12-10T03:26:15;36.80;;;20.33;;
16824;SDS011;8529;48.108;-1.706;2022-12-10T03:28:45;38.30;;;21.00;;
16824;SDS011;8529;48.108;-1.706;2022-12-10T03:31:15;39.27;;;20.43;;
16824;SDS011;8529;48.108;-1.706;2022-12-10T03:33:45;38.10;;;19.67;;
16824;SDS011;8529;48.108;-1.706;2022-12-10T03:36:15;39.30;;;20.90;;
16824;SDS011;8529;48.108;-1.706;2022-12-10T03:38:44;36.33;;;19.20;;
16824;SDS011;8529;48.108;-1.706;2022-12-10T03:41:11;38.40;;;19.53;;
16824;SDS011;8529;48.108;-1.706;2022-12-10T03:43:49;36.17;;;19.87;;
16824;SDS011;8529;48.108;-1.706;2022-12-10T03:46:20;37.87;;;19.50;;
16824;SDS011;8529;48.108;-1.706;2022-12-10T03:48:49;41.97;;;21.40;;
16824;SDS011;8529;48.108;-1.706;2022-12-10T03:51:16;41.80;;;22.23;;
16824;SDS011;8529;48.108;-1.706;2022-12-10T03:53:43;36.80;;;21.63;;
16824;SDS011;8529;48.108;-1.706;2022-12-10T03:56:10;44.70;;;20.57;;
16824;SDS011;8529;48.108;-1.706;2022-12-10T03:58:38;39.40;;;19.87;;
16824;SDS011;8529;48.108;-1.706;2022-12-10T04:01:05;37.83;;;19.20;;
16824;SDS011;8529;48.108;-1.706;2022-12-10T04:03:33;38.37;;;20.43;;
16824;SDS011;8529;48.108;-1.706;2022-12-10T04:06:03;42.23;;;20.83;;
16824;SDS011;8529;48.108;-1.706;2022-12-10T04:08:32;39.13;;;19.73;;
16824;SDS011;8529;48.108;-1.706;2022-12-10T04:11:03;37.30;;;20.07;;
16824;SDS011;8529;48.108;-1.706;2022-12-10T04:13:31;38.90;;;19.23;;
16824;SDS011;8529;48.108;-1.706;2022-12-10T04:16:16;41.37;;;19.97;;
16824;SDS011;8529;48.108;-1.706;2022-12-10T04:18:55;39.00;;;19.33;;
16824;SDS011;8529;48.108;-1.706;2022-12-10T04:21:25;38.90;;;19.53;;
16824;SDS011;8529;48.108;-1.706;2022-12-10T04:24:11;38.73;;;20.03;;
16824;SDS011;8529;48.108;-1.706;2022-12-10T04:26:53;38.33;;;19.57;;
16824;SDS011;8529;48.108;-1.706;2022-12-10T04:29:21;35.70;;;18.67;;
16824;SDS011;8529;48.108;-1.706;2022-12-10T04:31:49;37.27;;;18.53;;
16824;SDS011;8529;48.108;-1.706;2022-12-10T04:34:16;37.40;;;19.90;;
16824;SDS011;8529;48.108;-1.706;2022-12-10T04:36:45;31.53;;;17.63;;
16824;SDS011;8529;48.108;-1.706;2022-12-10T04:39:13;36.50;;;19.20;;
16824;SDS011;8529;48.108;-1.706;2022-12-10T04:41:40;35.23;;;18.63;;
16824;SDS011;8529;48.108;-1.706;2022-12-10T04:44:08;34.17;;;18.07;;
16824;SDS011;8529;48.108;-1.706;2022-12-10T04:46:35;37.00;;;19.20;;
16824;SDS011;8529;48.108;-1.706;2022-12-10T04:49:02;32.70;;;18.97;;
16824;SDS011;8529;48.108;-1.706;2022-12-10T04:51:30;35.80;;;18.53;;
16824;SDS011;8529;48.108;-1.706;2022-12-10T04:53:59;32.50;;;17.63;;
16824;SDS011;8529;48.108;-1.706;2022-12-10T04:56:26;27.77;;;17.63;;
16824;SDS011;8529;48.108;-1.706;2022-12-10T04:58:54;31.20;;;18.20;;
16824;SDS011;8529;48.108;-1.706;2022-12-10T05:01:21;33.00;;;17.43;;
16824;SDS011;8529;48.108;-1.706;2022-12-10T05:03:48;32.07;;;17.43;;
16824;SDS011;8529;48.108;-1.706;2022-12-10T05:06:16;32.60;;;17.50;;
16824;SDS011;8529;48.108;-1.706;2022-12-10T05:08:44;32.83;;;17.87;;
16824;SDS011;8529;48.108;-1.706;2022-12-10T05:11:14;34.13;;;17.23;;
16824;SDS011;8529;48.108;-1.706;2022-12-10T05:13:42;35.17;;;18.03;;
16824;SDS011;8529;48.108;-1.706;2022-12-10T05:16:10;29.80;;;16.97;;
16824;SDS011;8529;48.108;-1.706;2022-12-10T05:18:38;36.67;;;17.87;;
16824;SDS011;8529;48.108;-1.706;2022-12-10T05:21:07;32.93;;;16.47;;
16824;SDS011;8529;48.108;-1.706;2022-12-10T05:23:37;32.27;;;16.97;;
16824;SDS011;8529;48.108;-1.706;2022-12-10T05:26:05;34.83;;;19.27;;
16824;SDS011;8529;48.108;-1.706;2022-12-10T05:28:35;28.80;;;17.77;;
16824;SDS011;8529;48.108;-1.706;2022-12-10T05:31:04;38.03;;;18.20;;
16824;SDS011;8529;48.108;-1.706;2022-12-10T05:33:32;31.60;;;17.17;;
16824;SDS011;8529;48.108;-1.706;2022-12-10T05:35:59;32.10;;;16.77;;
16824;SDS011;8529;48.108;-1.706;2022-12-10T05:38:28;30.73;;;15.63;;
16824;SDS011;8529;48.108;-1.706;2022-12-10T05:41:00;37.13;;;18.07;;
16824;SDS011;8529;48.108;-1.706;2022-12-10T05:43:27;32.87;;;17.40;;
16824;SDS011;8529;48.108;-1.706;2022-12-10T05:45:59;33.90;;;16.90;;
16824;SDS011;8529;48.108;-1.706;2022-12-10T05:48:26;34.60;;;17.70;;
16824;SDS011;8529;48.108;-1.706;2022-12-10T05:50:53;37.10;;;18.03;;
16824;SDS011;8529;48.108;-1.706;2022-12-10T05:53:20;32.27;;;17.50;;
16824;SDS011;8529;48.108;-1.706;2022-12-10T05:55:48;35.73;;;16.77;;
16824;SDS011;8529;48.108;-1.706;2022-12-10T05:58:15;32.30;;;16.87;;
16824;SDS011;8529;48.108;-1.706;2022-12-10T06:00:42;28.97;;;16.30;;
16824;SDS011;8529;48.108;-1.706;2022-12-10T06:03:10;30.93;;;15.07;;
16824;SDS011;8529;48.108;-1.706;2022-12-10T06:05:37;29.67;;;16.17;;
16824;SDS011;8529;48.108;-1.706;2022-12-10T06:08:04;34.30;;;17.57;;
16824;SDS011;8529;48.108;-1.706;2022-12-10T06:10:33;33.80;;;16.10;;
16824;SDS011;8529;48.108;-1.706;2022-12-10T06:13:00;33.33;;;16.60;;
16824;SDS011;8529;48.108;-1.706;2022-12-10T06:15:27;32.77;;;15.60;;
16824;SDS011;8529;48.108;-1.706;2022-12-10T06:17:54;27.70;;;15.87;;
16824;SDS011;8529;48.108;-1.706;2022-12-10T06:20:23;28.67;;;15.80;;
16824;SDS011;8529;48.108;-1.706;2022-12-10T06:22:51;28.70;;;15.73;;
16824;SDS011;8529;48.108;-1.706;2022-12-10T06:25:18;31.13;;;16.67;;
16824;SDS011;8529;48.108;-1.706;2022-12-10T06:27:45;28.47;;;15.60;;
16824;SDS011;8529;48.108;-1.706;2022-12-10T06:30:13;28.10;;;16.13;;
16824;SDS011;8529;48.108;-1.706;2022-12-10T06:32:40;30.30;;;15.90;;
16824;SDS011;8529;48.108;-1.706;2022-12-10T06:35:08;31.20;;;16.20;;
16824;SDS011;8529;48.108;-1.706;2022-12-10T06:37:37;25.60;;;14.43;;
16824;SDS011;8529;48.108;-1.706;2022-12-10T06:40:05;26.73;;;14.83;;
16824;SDS011;8529;48.108;-1.706;2022-12-10T06:42:33;27.27;;;15.47;;
16824;SDS011;8529;48.108;-1.706;2022-12-10T06:45:00;29.30;;;15.43;;
16824;SDS011;8529;48.108;-1.706;2022-12-10T06:47:27;27.97;;;14.90;;
16824;SDS011;8529;48.108;-1.706;2022-12-10T06:49:55;33.17;;;16.73;;
16824;SDS011;8529;48.108;-1.706;2022-12-10T06:52:22;32.33;;;17.07;;
16824;SDS011;8529;48.108;-1.706;2022-12-10T06:54:51;31.50;;;15.30;;
16824;SDS011;8529;48.108;-1.706;2022-12-10T06:57:19;24.80;;;14.53;;
16824;SDS011;8529;48.108;-1.706;2022-12-10T06:59:46;30.83;;;15.93;;
16824;SDS011;8529;48.108;-1.706;2022-12-10T07:02:13;28.60;;;14.60;;
16824;SDS011;8529;48.108;-1.706;2022-12-10T07:04:40;24.00;;;14.80;;
16824;SDS011;8529;48.108;-1.706;2022-12-10T07:07:07;30.00;;;15.83;;
16824;SDS011;8529;48.108;-1.706;2022-12-10T07:09:34;28.63;;;14.47;;
16824;SDS011;8529;48.108;-1.706;2022-12-10T07:12:03;25.90;;;15.47;;
16824;SDS011;8529;48.108;-1.706;2022-12-10T07:14:30;29.47;;;16.40;;
16824;SDS011;8529;48.108;-1.706;2022-12-10T07:16:57;26.77;;;15.73;;
16824;SDS011;8529;48.108;-1.706;2022-12-10T07:19:24;27.67;;;15.90;;
16824;SDS011;8529;48.108;-1.706;2022-12-10T07:21:51;28.37;;;15.53;;
16824;SDS011;8529;48.108;-1.706;2022-12-10T07:24:18;29.40;;;16.00;;
16824;SDS011;8529;48.108;-1.706;2022-12-10T07:26:46;28.30;;;15.67;;
16824;SDS011;8529;48.108;-1.706;2022-12-10T07:29:15;29.97;;;15.83;;
16824;SDS011;8529;48.108;-1.706;2022-12-10T07:31:44;27.13;;;15.17;;
16824;SDS011;8529;48.108;-1.706;2022-12-10T07:34:13;25.60;;;14.60;;
16824;SDS011;8529;48.108;-1.706;2022-12-10T07:36:40;29.17;;;15.60;;
16824;SDS011;8529;48.108;-1.706;2022-12-10T07:39:08;26.07;;;15.13;;
16824;SDS011;8529;48.108;-1.706;2022-12-10T07:41:42;29.43;;;16.00;;
16824;SDS011;8529;48.108;-1.706;2022-12-10T07:44:10;35.27;;;17.03;;
16824;SDS011;8529;48.108;-1.706;2022-12-10T07:46:39;29.23;;;16.83;;
16824;SDS011;8529;48.108;-1.706;2022-12-10T07:49:06;37.87;;;17.00;;
16824;SDS011;8529;48.108;-1.706;2022-12-10T07:51:34;26.97;;;15.67;;
16824;SDS011;8529;48.108;-1.706;2022-12-10T07:54:01;30.97;;;15.40;;
16824;SDS011;8529;48.108;-1.706;2022-12-10T07:56:29;27.43;;;15.60;;
16824;SDS011;8529;48.108;-1.706;2022-12-10T07:58:56;35.33;;;15.87;;
16824;SDS011;8529;48.108;-1.706;2022-12-10T08:01:24;28.73;;;16.10;;
16824;SDS011;8529;48.108;-1.706;2022-12-10T08:03:54;31.03;;;16.00;;
16824;SDS011;8529;48.108;-1.706;2022-12-10T08:06:22;29.17;;;15.70;;
16824;SDS011;8529;48.108;-1.706;2022-12-10T08:08:51;26.90;;;15.80;;
16824;SDS011;8529;48.108;-1.706;2022-12-10T08:11:18;29.30;;;15.90;;
16824;SDS011;8529;48.108;-1.706;2022-12-10T08:13:48;29.20;;;14.83;;
16824;SDS011;8529;48.108;-1.706;2022-12-10T08:16:16;27.73;;;15.67;;
16824;SDS011;8529;48.108;-1.706;2022-12-10T08:18:44;31.03;;;15.90;;
16824;SDS011;8529;48.108;-1.706;2022-12-10T08:21:14;26.73;;;15.10;;
16824;SDS011;8529;48.108;-1.706;2022-12-10T08:23:43;29.00;;;14.93;;
16824;SDS011;8529;48.108;-1.706;2022-12-10T08:26:11;28.40;;;15.27;;
16824;SDS011;8529;48.108;-1.706;2022-12-10T08:28:39;29.47;;;16.50;;
16824;SDS011;8529;48.108;-1.706;2022-12-10T08:31:07;25.80;;;15.07;;
16824;SDS011;8529;48.108;-1.706;2022-12-10T08:33:36;28.67;;;14.83;;
16824;SDS011;8529;48.108;-1.706;2022-12-10T08:36:05;33.97;;;16.30;;
16824;SDS011;8529;48.108;-1.706;2022-12-10T08:38:34;32.07;;;16.20;;
16824;SDS011;8529;48.108;-1.706;2022-12-10T08:41:05;34.13;;;17.10;;
16824;SDS011;8529;48.108;-1.706;2022-12-10T08:43:33;35.63;;;18.73;;
16824;SDS011;8529;48.108;-1.706;2022-12-10T08:46:00;33.80;;;17.27;;
16824;SDS011;8529;48.108;-1.706;2022-12-10T08:48:27;35.97;;;17.97;;
16824;SDS011;8529;48.108;-1.706;2022-12-10T08:50:55;33.87;;;17.77;;
16824;SDS011;8529;48.108;-1.706;2022-12-10T08:53:22;33.13;;;17.43;;
16824;SDS011;8529;48.108;-1.706;2022-12-10T08:55:51;61.00;;;31.17;;
16824;SDS011;8529;48.108;-1.706;2022-12-10T08:58:18;39.87;;;19.93;;
16824;SDS011;8529;48.108;-1.706;2022-12-10T09:00:45;51.67;;;24.30;;
16824;SDS011;8529;48.108;-1.706;2022-12-10T09:03:13;51.70;;;24.47;;
16824;SDS011;8529;48.108;-1.706;2022-12-10T09:05:40;45.47;;;21.83;;
16824;SDS011;8529;48.108;-1.706;2022-12-10T09:08:08;44.57;;;21.00;;
16824;SDS011;8529;48.108;-1.706;2022-12-10T09:10:35;38.90;;;19.97;;
16824;SDS011;8529;48.108;-1.706;2022-12-10T09:13:04;36.77;;;19.47;;
16824;SDS011;8529;48.108;-1.706;2022-12-10T09:15:32;37.03;;;18.53;;
16824;SDS011;8529;48.108;-1.706;2022-12-10T09:17:59;34.50;;;18.90;;
16824;SDS011;8529;48.108;-1.706;2022-12-10T09:20:26;36.83;;;18.67;;
16824;SDS011;8529;48.108;-1.706;2022-12-10T09:22:53;34.83;;;18.20;;
16824;SDS011;8529;48.108;-1.706;2022-12-10T09:25:20;34.03;;;19.27;;
16824;SDS011;8529;48.108;-1.706;2022-12-10T09:27:47;30.73;;;17.57;;
16824;SDS011;8529;48.108;-1.706;2022-12-10T09:30:16;36.87;;;19.77;;
16824;SDS011;8529;48.108;-1.706;2022-12-10T09:32:43;32.00;;;19.37;;
16824;SDS011;8529;48.108;-1.706;2022-12-10T09:35:10;36.23;;;20.57;;
16824;SDS011;8529;48.108;-1.706;2022-12-10T09:37:37;34.07;;;20.33;;
16824;SDS011;8529;48.108;-1.706;2022-12-10T09:40:04;29.40;;;18.73;;
16824;SDS011;8529;48.108;-1.706;2022-12-10T09:42:38;33.53;;;18.70;;
16824;SDS011;8529;48.108;-1.706;2022-12-10T09:45:17;27.83;;;16.93;;
16824;SDS011;8529;48.108;-1.706;2022-12-10T09:47:48;30.13;;;18.33;;
16824;SDS011;8529;48.108;-1.706;2022-12-10T09:50:23;27.43;;;17.27;;
16824;SDS011;8529;48.108;-1.706;2022-12-10T09:52:56;32.43;;;18.03;;
16824;SDS011;8529;48.108;-1.706;2022-12-10T09:55:28;30.47;;;16.30;;
16824;SDS011;8529;48.108;-1.706;2022-12-10T09:57:59;26.80;;;17.17;;
16824;SDS011;8529;48.108;-1.706;2022-12-10T10:00:32;29.53;;;16.57;;
16824;SDS011;8529;48.108;-1.706;2022-12-10T10:03:01;30.60;;;18.03;;
16824;SDS011;8529;48.108;-1.706;2022-12-10T10:05:29;29.03;;;17.70;;
16824;SDS011;8529;48.108;-1.706;2022-12-10T10:07:59;32.10;;;18.37;;
16824;SDS011;8529;48.108;-1.706;2022-12-10T10:10:30;35.57;;;20.67;;
16824;SDS011;8529;48.108;-1.706;2022-12-10T10:13:00;32.97;;;19.53;;
16824;SDS011;8529;48.108;-1.706;2022-12-10T10:15:40;28.60;;;17.70;;
16824;SDS011;8529;48.108;-1.706;2022-12-10T10:18:11;25.80;;;16.93;;
16824;SDS011;8529;48.108;-1.706;2022-12-10T10:20:43;27.20;;;16.03;;
16824;SDS011;8529;48.108;-1.706;2022-12-10T10:23:12;30.43;;;17.20;;
16824;SDS011;8529;48.108;-1.706;2022-12-10T10:25:41;29.40;;;17.30;;
16824;SDS011;8529;48.108;-1.706;2022-12-10T10:28:10;33.03;;;17.73;;
16824;SDS011;8529;48.108;-1.706;2022-12-10T10:30:41;28.43;;;18.37;;
16824;SDS011;8529;48.108;-1.706;2022-12-10T10:33:11;29.47;;;17.47;;
16824;SDS011;8529;48.108;-1.706;2022-12-10T10:35:43;28.53;;;16.57;;
16824;SDS011;8529;48.108;-1.706;2022-12-10T10:38:16;26.23;;;15.47;;
16824;SDS011;8529;48.108;-1.706;2022-12-10T10:40:49;26.67;;;15.40;;
16824;SDS011;8529;48.108;-1.706;2022-12-10T10:43:19;31.43;;;17.03;;
16824;SDS011;8529;48.108;-1.706;2022-12-10T10:45:50;25.90;;;14.50;;
16824;SDS011;8529;48.108;-1.706;2022-12-10T10:48:20;24.70;;;16.00;;
16824;SDS011;8529;48.108;-1.706;2022-12-10T10:50:50;31.23;;;15.93;;
16824;SDS011;8529;48.108;-1.706;2022-12-10T10:53:29;24.27;;;15.17;;
16824;SDS011;8529;48.108;-1.706;2022-12-10T10:55:59;24.50;;;15.03;;
16824;SDS011;8529;48.108;-1.706;2022-12-10T10:58:33;25.17;;;14.77;;
16824;SDS011;8529;48.108;-1.706;2022-12-10T11:01:02;35.73;;;20.23;;
16824;SDS011;8529;48.108;-1.706;2022-12-10T11:03:33;24.83;;;14.53;;
16824;SDS011;8529;48.108;-1.706;2022-12-10T11:06:04;26.00;;;15.47;;
16824;SDS011;8529;48.108;-1.706;2022-12-10T11:08:34;28.23;;;15.50;;
16824;SDS011;8529;48.108;-1.706;2022-12-10T11:11:04;40.10;;;21.27;;
16824;SDS011;8529;48.108;-1.706;2022-12-10T11:13:36;26.93;;;14.80;;
16824;SDS011;8529;48.108;-1.706;2022-12-10T11:16:11;26.40;;;14.27;;
16824;SDS011;8529;48.108;-1.706;2022-12-10T11:18:51;36.00;;;16.90;;
16824;SDS011;8529;48.108;-1.706;2022-12-10T11:21:20;28.17;;;17.07;;
16824;SDS011;8529;48.108;-1.706;2022-12-10T11:23:49;25.90;;;15.33;;
16824;SDS011;8529;48.108;-1.706;2022-12-10T11:26:21;30.30;;;16.77;;
16824;SDS011;8529;48.108;-1.706;2022-12-10T11:29:02;28.23;;;16.33;;
16824;SDS011;8529;48.108;-1.706;2022-12-10T11:31:43;33.57;;;15.90;;
16824;SDS011;8529;48.108;-1.706;2022-12-10T11:34:24;25.13;;;15.60;;
16824;SDS011;8529;48.108;-1.706;2022-12-10T11:37:06;23.43;;;14.77;;
16824;SDS011;8529;48.108;-1.706;2022-12-10T11:39:51;23.80;;;14.67;;
16824;SDS011;8529;48.108;-1.706;2022-12-10T11:42:38;26.20;;;14.57;;
16824;SDS011;8529;48.108;-1.706;2022-12-10T11:45:13;22.90;;;14.47;;
16824;SDS011;8529;48.108;-1.706;2022-12-10T11:47:53;24.70;;;14.93;;
16824;SDS011;8529;48.108;-1.706;2022-12-10T11:50:33;24.80;;;14.83;;
16824;SDS011;8529;48.108;-1.706;2022-12-10T11:53:11;29.20;;;16.87;;
16824;SDS011;8529;48.108;-1.706;2022-12-10T11:55:47;25.57;;;15.43;;
16824;SDS011;8529;48.108;-1.706;2022-12-10T11:58:27;25.13;;;15.63;;
16824;SDS011;8529;48.108;-1.706;2022-12-10T12:01:11;26.87;;;15.90;;
16824;SDS011;8529;48.108;-1.706;2022-12-10T12:03:51;27.47;;;16.47;;
16824;SDS011;8529;48.108;-1.706;2022-12-10T12:06:32;27.80;;;15.93;;
16824;SDS011;8529;48.108;-1.706;2022-12-10T12:09:18;25.20;;;16.30;;
16824;SDS011;8529;48.108;-1.706;2022-12-10T12:12:00;29.63;;;17.03;;
16824;SDS011;8529;48.108;-1.706;2022-12-10T12:14:39;26.77;;;16.03;;
16824;SDS011;8529;48.108;-1.706;2022-12-10T12:17:11;30.57;;;17.47;;
16824;SDS011;8529;48.108;-1.706;2022-12-10T12:19:46;24.77;;;15.70;;
16824;SDS011;8529;48.108;-1.706;2022-12-10T12:22:21;27.67;;;16.07;;
16824;SDS011;8529;48.108;-1.706;2022-12-10T12:24:52;27.20;;;16.97;;
16824;SDS011;8529;48.108;-1.706;2022-12-10T12:27:23;28.83;;;17.00;;
16824;SDS011;8529;48.108;-1.706;2022-12-10T12:30:00;34.63;;;18.33;;
16824;SDS011;8529;48.108;-1.706;2022-12-10T12:32:31;29.37;;;19.43;;
16824;SDS011;8529;48.108;-1.706;2022-12-10T12:35:09;25.60;;;14.97;;
16824;SDS011;8529;48.108;-1.706;2022-12-10T12:37:41;26.17;;;15.63;;
16824;SDS011;8529;48.108;-1.706;2022-12-10T12:40:13;22.63;;;13.20;;
16824;SDS011;8529;48.108;-1.706;2022-12-10T12:42:48;18.43;;;10.53;;
16824;SDS011;8529;48.108;-1.706;2022-12-10T12:45:21;16.17;;;10.13;;
16824;SDS011;8529;48.108;-1.706;2022-12-10T12:47:59;17.47;;;10.90;;
16824;SDS011;8529;48.108;-1.706;2022-12-10T12:50:37;14.10;;;10.27;;
16824;SDS011;8529;48.108;-1.706;2022-12-10T12:53:11;18.40;;;11.03;;
16824;SDS011;8529;48.108;-1.706;2022-12-10T12:55:44;15.03;;;9.33;;
16824;SDS011;8529;48.108;-1.706;2022-12-10T12:58:20;17.97;;;12.00;;
16824;SDS011;8529;48.108;-1.706;2022-12-10T13:00:54;14.33;;;8.40;;
16824;SDS011;8529;48.108;-1.706;2022-12-10T13:03:29;16.67;;;9.80;;
16824;SDS011;8529;48.108;-1.706;2022-12-10T13:06:15;12.10;;;7.73;;
16824;SDS011;8529;48.108;-1.706;2022-12-10T13:08:47;14.47;;;7.87;;
16824;SDS011;8529;48.108;-1.706;2022-12-10T13:17:00;9.90;;;7.03;;
16824;SDS011;8529;48.108;-1.706;2022-12-10T13:19:42;10.73;;;7.60;;
16824;SDS011;8529;48.108;-1.706;2022-12-10T13:22:11;12.43;;;8.00;;
16824;SDS011;8529;48.108;-1.706;2022-12-10T13:25:05;11.60;;;6.87;;
16824;SDS011;8529;48.108;-1.706;2022-12-10T13:27:37;13.53;;;7.87;;
16824;SDS011;8529;48.108;-1.706;2022-12-10T13:30:30;10.40;;;8.13;;
16824;SDS011;8529;48.108;-1.706;2022-12-10T13:33:03;11.90;;;8.00;;
16824;SDS011;8529;48.108;-1.706;2022-12-10T13:35:48;12.23;;;7.03;;
16824;SDS011;8529;48.108;-1.706;2022-12-10T13:38:23;10.63;;;6.40;;
16824;SDS011;8529;48.108;-1.706;2022-12-10T13:40:56;12.77;;;6.57;;
16824;SDS011;8529;48.108;-1.706;2022-12-10T13:43:43;11.20;;;6.63;;
16824;SDS011;8529;48.108;-1.706;2022-12-10T13:49:24;9.60;;;6.00;;
16824;SDS011;8529;48.108;-1.706;2022-12-10T13:51:57;10.27;;;6.33;;
16824;SDS011;8529;48.108;-1.706;2022-12-10T13:57:37;9.43;;;4.90;;
16824;SDS011;8529;48.108;-1.706;2022-12-10T14:00:13;8.73;;;5.20;;
16824;SDS011;8529;48.108;-1.706;2022-12-10T14:02:54;11.60;;;6.13;;
16824;SDS011;8529;48.108;-1.706;2022-12-10T14:08:29;13.53;;;6.40;;
16824;SDS011;8529;48.108;-1.706;2022-12-10T14:10:59;10.87;;;6.40;;
16824;SDS011;8529;48.108;-1.706;2022-12-10T14:13:31;12.57;;;7.40;;
16824;SDS011;8529;48.108;-1.706;2022-12-10T14:16:01;11.73;;;7.27;;
16824;SDS011;8529;48.108;-1.706;2022-12-10T14:18:31;10.87;;;6.33;;
16824;SDS011;8529;48.108;-1.706;2022-12-10T14:20:58;10.90;;;7.23;;
16824;SDS011;8529;48.108;-1.706;2022-12-10T14:23:32;11.00;;;7.20;;
16824;SDS011;8529;48.108;-1.706;2022-12-10T14:26:03;10.87;;;7.30;;
16824;SDS011;8529;48.108;-1.706;2022-12-10T14:28:36;10.13;;;6.20;;
16824;SDS011;8529;48.108;-1.706;2022-12-10T14:31:05;8.70;;;5.73;;
16824;SDS011;8529;48.108;-1.706;2022-12-10T14:33:38;10.53;;;5.43;;
16824;SDS011;8529;48.108;-1.706;2022-12-10T14:36:06;9.73;;;4.50;;
16824;SDS011;8529;48.108;-1.706;2022-12-10T14:38:33;10.47;;;5.03;;
16824;SDS011;8529;48.108;-1.706;2022-12-10T14:41:02;8.77;;;5.23;;
16824;SDS011;8529;48.108;-1.706;2022-12-10T14:43:31;11.30;;;6.83;;
16824;SDS011;8529;48.108;-1.706;2022-12-10T14:46:03;6.73;;;4.10;;
16824;SDS011;8529;48.108;-1.706;2022-12-10T14:48:38;7.33;;;4.50;;
16824;SDS011;8529;48.108;-1.706;2022-12-10T14:51:10;6.93;;;3.83;;
16824;SDS011;8529;48.108;-1.706;2022-12-10T14:53:40;8.07;;;4.67;;
16824;SDS011;8529;48.108;-1.706;2022-12-10T14:56:07;5.07;;;3.43;;
16824;SDS011;8529;48.108;-1.706;2022-12-10T14:58:48;3.83;;;3.10;;